Sign in:
Email
 Password  save:
  
 Company Reports 
 
   
My Recent Searches
  Help
 
   
 
 
Get Institutions for : 
Liberty Media Interactive (LINTA)    
$28.59 0.35 (1.21%) as of 4:30 Thu 7/10


Download
     
Institutional Holders
Viewing Quarter :
  
Total Institutions: 383    4
Total shares held : 
405,117,905  
% of shares held : 
72.52%  
Changes In:
New/increased positions vs   
old/decreased positions : 
  -26  
Amount of shares held : 
-6,033,177  
% of shares held change : 
  -1.08%  
Quarter Price vs. Current Price:
Last Quarter's Starting Price
$29.21  
Last Quarter's Ending Price : 
$28.87  
Last Quarter's Average Price
$28.40  
Change from last quarter's     
avg. price to the last closing  : 
0.19 (0.67%)  




 
All Securities Held :
Positions
     Shares
% Of
Total Shares
New Positions :
34
 9,136,626
 2.26%
 
Increased Positions :
122
 17,887,770
 4.42%
 
Unchanged Positions :
83
 16,235,978
 4.01%
 
Decreased Positions :
144
-28,783,390
-7.1%
 
Closed Positions :
38
-4,274,183
-1.06%
 
Guru Positions :
2
28,307,216
 6.99%
 
View holdings for period: 
6-30-2012 View holdings for period: 
9-30-2012 View holdings for period: 
12-31-2012 View holdings for period: 
3-31-2013 View holdings for period: 
6-30-2013 View holdings for period: 
9-30-2013 View holdings for period: 
12-31-2013 View holdings for the current period

  Page 1 of 1  
Free Registration Required For Full Results


            Institution Name
Portfolio
Position
New/Closed
Position

Filing Date

Total Shares

Total Value

Change in Shares

File
   MACQUARIE GROUP LTD 14 - 2014-03-31 28,766,188 $830,480,000 -2,475,550
   HARRIS ASSOCIATES L P 25 - 2014-03-31 23,614,079 $681,738,000 1,251,914
   DODGE & COX -- Notable Guru -- 50 - 2014-03-31 23,246,686 $671,132,000 -113,967
   FMR LLC 247 - 2014-03-31 22,362,214 $645,598,000 -4,650,144
   BROWN BROTHERS HARRIMAN & CO 21 - 2014-03-31 20,165,802 $582,187,000 -1,846,015
   CLEARBRIDGE ADVISORS LLC 49 - 2014-03-31 15,559,557 $449,204,000 303,332
   VANGUARD GROUP INC 621 - 2014-03-31 12,640,806 $364,941,000 20,233
   BLACKROCK INSTITUTIONAL TRUST COMPANY 331 - 2014-03-31 11,627,220 $335,678,000 -14,275
   STATE STREET CORP 447 - 2014-03-31 11,135,821 $321,492,000 -684,473
   DAVIS SELECTED ADVISERS 34 - 2014-03-31 10,734,617 $309,908,000 313,125
   GOLDMAN SACHS GROUP INC/ 208 - 2014-03-31 8,770,123 $253,194,000 249,901
   PRINCIPAL FINANCIAL GROUP INC 31 - 2014-03-31 8,453,123 $244,042,000 321,721
   RS INVESTMENT MANAGEMENT CO LLC 15 - 2014-03-31 7,665,138 $221,285,000 1,227,749
   BRAHMAN CAPITAL CORP. 6 - 2014-03-31 7,121,184 $205,589,000 -251,011
   MERITAGE GROUP LP 7 - 2014-03-31 7,083,378 $204,497,000 -1,259,093
   ARTISAN PARTNERS LIMITED PARTNERSHIP 105 - 2014-03-31 7,058,688 $203,784,000 -8,219
   HORIZON KINETICS LLC 11 - 2014-03-31 7,045,001 $203,389,000 -262,496
   INVESCO LTD 298 - 2014-03-31 6,750,436 $194,886,000 -144,311
   DIMENSIONAL FUND ADVISORS INC 135 - 2014-03-31 5,586,127 $161,253,000 -88,807
   TIAA CREF INVESTMENT MANAGEMENT LLC 211 - 2014-03-31 5,192,809 $149,916,000 680,072
   WEITZ WALLACE R & CO -- Notable Guru -- 5 - 2014-03-31 5,060,530 $146,098,000 138,390
   FPR PARTNERS LLC 9 - 2014-03-31 4,826,938 $139,354,000 -644,368
   D E SHAW & CO INC 87 - 2014-03-31 4,293,180 $123,944,000 496,562
   ALLIANCEBERNSTEIN L.P. 228 - 2014-03-31 4,199,110 $121,228,000 877,871
   LOOMIS SAYLES & CO L P 64 - 2014-03-31 3,893,821 $112,415,000 -580,812
   JANA PARTNERS LLC 24 *New 2014-03-31 3,832,848 $110,654,000 3,832,848
   BLACKROCK FUND ADVISORS 814 - 2014-03-31 3,620,941 $104,537,000 -169,820
   NORTHERN TRUST CORP 508 - 2014-03-31 3,165,956 $91,401,000 -354,339
   UNITED STATES STEEL & CARNEGIE PENSION FD 20 - 2014-03-31 3,106,172 $89,675,000 0
   PASSPORT CAPITAL, LLC 9 - 2014-03-31 3,102,987 $89,583,000 571,875
   YACKTMAN ASSET MANAGEMENT CO/IL 36 - 2014-03-31 2,941,301 $84,915,000 0
   MAKAIRA PARTNERS LLC 3 - 2014-03-31 2,908,165 $83,959,000 0
   SAMLYN CAPITAL LLC 16 - 2014-03-31 2,906,409 $83,908,000 1,891,894
   BANK OF NEW YORK MELLON CORP 655 - 2014-03-31 2,821,649 $81,461,000 113,504
   OSTERWEIS CAPITAL MANAGEMENT INC 22 - 2014-03-31 2,768,626 $79,930,000 65,750
   BLACKROCK GROUP LTD 417 - 2014-03-31 2,756,581 $79,581,000 -16,528
   FINDLAY PARK PARTNERS LLP 47 - 2014-03-31 2,572,856 $74,278,000 0
   GEODE CAPITAL MANAGEMENT LLC 376 - 2014-03-31 2,499,863 $72,157,000 50,905
   TEACHERS ADVISORS INC 168 - 2014-03-31 2,302,241 $66,466,000 60,026
   GAMCO INVESTORS INC ET AL 86 - 2014-03-31 1,121,535 $64,757,000 -1,304,654
   POLAR CAPITAL LLP 9 - 2014-03-31 2,128,980 $61,464,000 338,505
   INTERNATIONAL VALUE ADVISERS, LLC 26 - 2014-03-31 2,110,358 $60,926,000 13,248
   LEGAL & GENERAL GROUP PLC 310 - 2014-03-31 2,065,637 $59,635,000 -177,240
   LYRICAL ASSET MANAGEMENT LP 13 - 2014-03-31 1,866,869 $53,897,000 211,576
   WHITE ELM CAPITAL, LLC 9 - 2014-03-31 1,802,465 $52,037,000 134,315
   PORTER ORLIN LLC 21 *New 2014-03-31 1,745,000 $50,378,000 1,745,000
   ACADIAN ASSET MANAGEMENT LLC 97 - 2014-03-31 1,686,616 $48,691,000 -38,243
   SCHWAB CHARLES INVESTMENT MANAGEMENT INC 229 - 2014-03-31 1,629,420 $47,042,000 -295,659
   MITSUBISHI UFJ TRUST & BANKING CORP 220 - 2014-03-31 1,612,391 $46,550,000 1,612,391
   FEDERATED INVESTORS INC /PA/ 130 - 2014-03-31 1,611,351 $46,520,000 -320,026
   WELLS FARGO & CO/MN 789 - 2014-03-31 1,599,685 $46,184,000 403,897
   SCOPUS ASSET MANAGEMENT LP 26 - 2014-03-31 1,447,900 $41,801,000 297,700
   EAGLE ASSET MANAGEMENT INC 149 - 2014-03-31 1,442,320 $41,639,000 118,074
   CALIFORNIA PUBLIC EMPLOYEES RETIREMENT SYSTEM 335 - 2014-03-31 1,445,350 $41,409,000 -183,300
   PARAMETRIC PORTFOLIO ASSOCIATES 232 - 2014-03-31 1,407,878 $40,645,000 99,487
   CORSAIR CAPITAL MANAGEMENT LLC 7 - 2014-03-31 1,374,552 $39,683,000 42,825
   FRESHFORD CAPITAL MANAGEMENT, LLC 7 - 2014-03-31 1,369,569 $39,540,000 126,894
   GABELLI FUNDS LLC 149 - 2014-03-31 677,550 $39,122,000 -686,350
   PRICE T ROWE ASSOCIATES INC /MD/ 941 - 2014-03-31 1,291,094 $37,274,000 800
   BLACKROCK INC. 336 - 2014-03-31 1,286,910 $37,153,000 487,105
   UBS GLOBAL ASSET MANAGEMENT AMERICAS INC 467 - 2014-03-31 1,266,081 $36,551,000 33,088
   NEW SOUTH CAPITAL MANAGEMENT INC 40 - 2014-03-31 1,256,860 $36,286,000 263,983
   LOCUST WOOD CAPITAL ADVISERS LLC 3 - 2014-03-31 1,191,134 $34,388,000 -19,632
   SUMITOMO MITSUI TRUST HOLDINGS, INC. 328 - 2014-03-31 1,177,209 $33,986,000 -93,175
   CLOUGH CAPITAL PARTNERS L P 28 - 2014-03-31 1,167,986 $33,720,000 -589,700
   FIRST MANHATTAN CO 89 - 2014-03-31 1,141,448 $32,953,000 -33,359
   CITADEL ADVISORS LLC 379 - 2014-03-31 1,114,722 $32,182,000 -296,469
   STONERISE CAPITAL MANAGEMENT, LLC 2 - 2014-03-31 1,100,000 $31,757,000 0
   FAIRVIEW CAPITAL INVESTMENT MANAGEMENT 9 - 2014-03-31 1,075,826 $31,059,000 -623,000
   OXFORD ASSET MANAGEMENT 8 - 2014-03-31 1,014,285 $29,282,000 252,033
   LOS ANGELES CAPITAL MANAGEMENT & EQUITY RESEARCH I 91 - 2014-03-31 987,644 $28,513,000 187,645
   MORGAN STANLEY 1115 - 2014-03-31 956,023 $27,600,000 -123,913
   WALLACE CAPITAL MANAGEMENT INC. 5 - 2014-03-31 938,687 $27,100,000 10,943
   HIGHFIELDS CAPITAL MANAGEMENT LP 50 - 2014-03-31 926,000 $26,734,000 190,000
   Roystone Capital Management LP 24 *New 2014-03-31 920,000 $26,560,000 920,000
   Tyrian Investments L.P. 14 *New 2014-03-31 913,032 $26,359,000 913,032
   CREDIT SUISSE/ 611 - 2014-03-31 906,411 $26,168,000 -128,224
   CALIFORNIA STATE TEACHERS RETIREMENT SYSTEM 286 - 2014-03-31 905,882 $26,153,000 -53,200
   STATE BOARD OF ADMINISTRATION OF FLORIDA RETIREMEN 239 - 2014-03-31 892,035 $25,753,000 -77,015
   RUSSELL FRANK CO/ 464 - 2014-03-31 879,008 $25,377,000 -44,743
   IVORY INVESTMENT MANAGEMENT LP 28 - 2014-03-31 830,724 $23,983,000 -149,210
   GUGGENHEIM CAPITAL LLC 525 - 2014-03-31 814,566 $23,517,000 477,915
   MANAGED ACCOUNT ADVISORS LLC 628 - 2014-03-31 763,543 $22,043,000 339,431
   S&CO INC 9 - 2014-03-31 728,727 $21,038,000 236,940
   KENMARE CAPITAL PARTNERS LLC 4 - 2014-03-31 727,016 $20,989,000 5,316
   MARKSTON INTERNATIONAL LLC 21 - 2014-03-31 689,672 $19,910,000 -2,100
   MIZUHO TRUST & BANKING CO., LTD. 321 - 2014-03-31 660,214 $19,060,000 -46,627
   RENAISSANCE TECHNOLOGIES LLC 521 - 2014-03-31 634,376 $18,314,000 109,326
   SG AMERICAS SECURITIES LLC 282 - 2014-03-31 622,021 $17,958,000 -82,419
   WELLINGTON MANAGEMENT CO LLP 1071 - 2014-03-31 609,593 $17,599,000 -3,377,730
   FORT HOOSAC MANAGEMENT, LLC 7 - 2014-03-31 588,700 $16,996,000 194,200
   CREDIT AGRICOLE S A 326 - 2014-03-31 586,985 $16,947,000 228,597
   J P MORGAN CHASE & CO 1344 - 2014-03-31 579,513 $16,732,000 40,549
   DEUTSCHE BANK AG 1018 - 2014-03-31 571,968 $16,509,000 150,994
   SEVEN LOCKS CAPITAL MANAGEMENT LP 8 - 2014-03-31 560,279 $16,175,000 308,610
   FOUNDATION ASSET MANAGEMENT, LLC 12 - 2014-03-31 538,557 $15,548,000 -167,094
   BLACKROCK JAPAN CO LTD 326 - 2014-03-31 538,525 $15,547,000 -29,751
   NATIXIS ASSET MANAGEMENT ADVISORS LP 102 - 2014-03-31 510,309 $14,733,000 -61,528
   JANUS CAPITAL MANAGEMENT LLC 596 - 2014-03-31 503,979 $14,550,000 -268,900
   FIRST TRUST ADVISORS LP 493 - 2014-03-31 491,087 $14,178,000 137,522

  100 Records found
  1    
  Page 1 of 1
Free Registration Required For Full Results